sensor_id;sensor_type;location;lat;lon;timestamp;P1;durP1;ratioP1;P2;durP2;ratioP2
24223;SDS011;12359;49.716;9.212;2022-12-18T00:01:19;32.10;;;19.83;;
24223;SDS011;12359;49.716;9.212;2022-12-18T00:03:46;37.05;;;19.77;;
24223;SDS011;12359;49.716;9.212;2022-12-18T00:06:12;36.88;;;21.63;;
24223;SDS011;12359;49.716;9.212;2022-12-18T00:08:38;37.38;;;18.75;;
24223;SDS011;12359;49.716;9.212;2022-12-18T00:11:10;34.92;;;20.42;;
24223;SDS011;12359;49.716;9.212;2022-12-18T00:13:37;38.95;;;20.40;;
24223;SDS011;12359;49.716;9.212;2022-12-18T00:16:03;34.80;;;18.08;;
24223;SDS011;12359;49.716;9.212;2022-12-18T00:18:32;33.05;;;20.25;;
24223;SDS011;12359;49.716;9.212;2022-12-18T00:21:07;26.20;;;18.35;;
24223;SDS011;12359;49.716;9.212;2022-12-18T00:23:35;47.45;;;22.13;;
24223;SDS011;12359;49.716;9.212;2022-12-18T00:26:04;49.25;;;22.55;;
24223;SDS011;12359;49.716;9.212;2022-12-18T00:28:31;38.55;;;21.33;;
24223;SDS011;12359;49.716;9.212;2022-12-18T00:31:01;25.00;;;15.98;;
24223;SDS011;12359;49.716;9.212;2022-12-18T00:33:34;33.25;;;19.83;;
24223;SDS011;12359;49.716;9.212;2022-12-18T00:36:07;38.75;;;21.50;;
24223;SDS011;12359;49.716;9.212;2022-12-18T00:38:36;34.38;;;21.55;;
24223;SDS011;12359;49.716;9.212;2022-12-18T00:41:02;34.05;;;19.27;;
24223;SDS011;12359;49.716;9.212;2022-12-18T00:43:29;36.58;;;19.52;;
24223;SDS011;12359;49.716;9.212;2022-12-18T00:45:55;35.53;;;20.20;;
24223;SDS011;12359;49.716;9.212;2022-12-18T00:48:20;36.15;;;20.65;;
24223;SDS011;12359;49.716;9.212;2022-12-18T00:50:49;31.52;;;20.75;;
24223;SDS011;12359;49.716;9.212;2022-12-18T00:53:15;40.65;;;20.90;;
24223;SDS011;12359;49.716;9.212;2022-12-18T00:55:42;34.92;;;23.98;;
24223;SDS011;12359;49.716;9.212;2022-12-18T00:58:08;37.47;;;22.27;;
24223;SDS011;12359;49.716;9.212;2022-12-18T01:00:35;36.80;;;20.17;;
24223;SDS011;12359;49.716;9.212;2022-12-18T01:03:01;40.50;;;21.08;;
24223;SDS011;12359;49.716;9.212;2022-12-18T01:05:27;38.20;;;21.55;;
24223;SDS011;12359;49.716;9.212;2022-12-18T01:07:53;32.20;;;21.55;;
24223;SDS011;12359;49.716;9.212;2022-12-18T01:10:18;38.25;;;20.88;;
24223;SDS011;12359;49.716;9.212;2022-12-18T01:12:44;35.83;;;19.45;;
24223;SDS011;12359;49.716;9.212;2022-12-18T01:15:10;35.45;;;20.27;;
24223;SDS011;12359;49.716;9.212;2022-12-18T01:17:38;36.03;;;21.15;;
24223;SDS011;12359;49.716;9.212;2022-12-18T01:20:03;34.92;;;21.70;;
24223;SDS011;12359;49.716;9.212;2022-12-18T01:22:30;34.03;;;20.15;;
24223;SDS011;12359;49.716;9.212;2022-12-18T01:24:55;41.03;;;21.10;;
24223;SDS011;12359;49.716;9.212;2022-12-18T01:27:21;32.38;;;19.60;;
24223;SDS011;12359;49.716;9.212;2022-12-18T01:29:47;32.78;;;18.77;;
24223;SDS011;12359;49.716;9.212;2022-12-18T01:32:14;34.88;;;19.88;;
24223;SDS011;12359;49.716;9.212;2022-12-18T01:34:39;35.10;;;19.67;;
24223;SDS011;12359;49.716;9.212;2022-12-18T01:37:05;33.33;;;20.80;;
24223;SDS011;12359;49.716;9.212;2022-12-18T01:39:31;36.53;;;21.27;;
24223;SDS011;12359;49.716;9.212;2022-12-18T01:41:58;34.17;;;21.65;;
24223;SDS011;12359;49.716;9.212;2022-12-18T01:47:20;35.80;;;21.95;;
24223;SDS011;12359;49.716;9.212;2022-12-18T01:49:52;40.78;;;22.58;;
24223;SDS011;12359;49.716;9.212;2022-12-18T01:52:20;38.85;;;23.27;;
24223;SDS011;12359;49.716;9.212;2022-12-18T01:54:46;35.38;;;20.13;;
24223;SDS011;12359;49.716;9.212;2022-12-18T01:57:13;34.15;;;21.40;;
24223;SDS011;12359;49.716;9.212;2022-12-18T01:59:39;37.55;;;20.55;;
24223;SDS011;12359;49.716;9.212;2022-12-18T02:02:07;37.03;;;21.15;;
24223;SDS011;12359;49.716;9.212;2022-12-18T02:04:33;38.35;;;23.15;;
24223;SDS011;12359;49.716;9.212;2022-12-18T02:09:48;36.95;;;20.58;;
24223;SDS011;12359;49.716;9.212;2022-12-18T02:12:23;38.65;;;24.23;;
24223;SDS011;12359;49.716;9.212;2022-12-18T02:15:00;44.55;;;25.48;;
24223;SDS011;12359;49.716;9.212;2022-12-18T02:17:39;44.28;;;24.75;;
24223;SDS011;12359;49.716;9.212;2022-12-18T02:28:22;42.15;;;24.58;;
24223;SDS011;12359;49.716;9.212;2022-12-18T02:30:51;34.75;;;23.90;;
24223;SDS011;12359;49.716;9.212;2022-12-18T02:33:18;35.13;;;22.77;;
24223;SDS011;12359;49.716;9.212;2022-12-18T02:35:45;40.45;;;23.83;;
24223;SDS011;12359;49.716;9.212;2022-12-18T02:38:13;52.30;;;27.40;;
24223;SDS011;12359;49.716;9.212;2022-12-18T02:40:40;40.75;;;24.92;;
24223;SDS011;12359;49.716;9.212;2022-12-18T02:43:08;46.17;;;25.92;;
24223;SDS011;12359;49.716;9.212;2022-12-18T02:45:45;34.55;;;23.58;;
24223;SDS011;12359;49.716;9.212;2022-12-18T02:48:13;43.15;;;24.17;;
24223;SDS011;12359;49.716;9.212;2022-12-18T02:50:41;39.28;;;22.73;;
24223;SDS011;12359;49.716;9.212;2022-12-18T03:03:47;49.88;;;26.20;;
24223;SDS011;12359;49.716;9.212;2022-12-18T03:08:47;41.55;;;25.13;;
24223;SDS011;12359;49.716;9.212;2022-12-18T03:11:17;35.83;;;23.63;;
24223;SDS011;12359;49.716;9.212;2022-12-18T03:14:06;39.95;;;23.85;;
24223;SDS011;12359;49.716;9.212;2022-12-18T03:16:33;32.20;;;19.45;;
24223;SDS011;12359;49.716;9.212;2022-12-18T03:19:20;32.53;;;21.25;;
24223;SDS011;12359;49.716;9.212;2022-12-18T03:21:50;33.22;;;21.90;;
24223;SDS011;12359;49.716;9.212;2022-12-18T03:24:19;36.78;;;20.38;;
24223;SDS011;12359;49.716;9.212;2022-12-18T03:26:46;34.83;;;20.45;;
24223;SDS011;12359;49.716;9.212;2022-12-18T03:29:20;36.95;;;20.50;;
24223;SDS011;12359;49.716;9.212;2022-12-18T03:31:53;33.72;;;19.63;;
24223;SDS011;12359;49.716;9.212;2022-12-18T03:34:24;35.20;;;20.25;;
24223;SDS011;12359;49.716;9.212;2022-12-18T03:36:54;35.75;;;21.67;;
24223;SDS011;12359;49.716;9.212;2022-12-18T03:39:20;47.35;;;26.63;;
24223;SDS011;12359;49.716;9.212;2022-12-18T03:41:55;44.95;;;29.25;;
24223;SDS011;12359;49.716;9.212;2022-12-18T03:50:50;46.15;;;25.58;;
24223;SDS011;12359;49.716;9.212;2022-12-18T03:53:28;46.08;;;27.08;;
24223;SDS011;12359;49.716;9.212;2022-12-18T03:55:59;51.50;;;27.17;;
24223;SDS011;12359;49.716;9.212;2022-12-18T03:58:27;40.97;;;25.65;;
24223;SDS011;12359;49.716;9.212;2022-12-18T04:00:55;42.47;;;23.92;;
24223;SDS011;12359;49.716;9.212;2022-12-18T04:03:24;42.05;;;24.17;;
24223;SDS011;12359;49.716;9.212;2022-12-18T04:05:51;40.53;;;23.48;;
24223;SDS011;12359;49.716;9.212;2022-12-18T04:08:19;41.53;;;23.27;;
24223;SDS011;12359;49.716;9.212;2022-12-18T04:10:46;43.50;;;25.88;;
24223;SDS011;12359;49.716;9.212;2022-12-18T04:13:12;43.78;;;24.92;;
24223;SDS011;12359;49.716;9.212;2022-12-18T04:15:52;40.97;;;25.75;;
24223;SDS011;12359;49.716;9.212;2022-12-18T04:18:18;46.30;;;26.17;;
24223;SDS011;12359;49.716;9.212;2022-12-18T04:20:44;45.65;;;25.30;;
24223;SDS011;12359;49.716;9.212;2022-12-18T04:23:09;40.88;;;23.63;;
24223;SDS011;12359;49.716;9.212;2022-12-18T04:25:35;42.95;;;25.90;;
24223;SDS011;12359;49.716;9.212;2022-12-18T04:28:01;43.55;;;26.10;;
24223;SDS011;12359;49.716;9.212;2022-12-18T04:30:26;44.83;;;27.17;;
24223;SDS011;12359;49.716;9.212;2022-12-18T04:32:52;44.30;;;27.73;;
24223;SDS011;12359;49.716;9.212;2022-12-18T04:35:18;50.63;;;27.85;;
24223;SDS011;12359;49.716;9.212;2022-12-18T04:37:43;53.72;;;29.70;;
24223;SDS011;12359;49.716;9.212;2022-12-18T04:40:09;50.33;;;30.27;;
24223;SDS011;12359;49.716;9.212;2022-12-18T04:42:35;54.60;;;29.13;;
24223;SDS011;12359;49.716;9.212;2022-12-18T04:45:01;50.45;;;28.67;;
24223;SDS011;12359;49.716;9.212;2022-12-18T04:47:27;46.13;;;29.20;;
24223;SDS011;12359;49.716;9.212;2022-12-18T04:49:52;48.85;;;28.40;;
24223;SDS011;12359;49.716;9.212;2022-12-18T04:52:18;43.88;;;26.38;;
24223;SDS011;12359;49.716;9.212;2022-12-18T04:54:44;44.75;;;26.40;;
24223;SDS011;12359;49.716;9.212;2022-12-18T04:57:09;39.28;;;25.58;;
24223;SDS011;12359;49.716;9.212;2022-12-18T04:59:35;39.00;;;23.08;;
24223;SDS011;12359;49.716;9.212;2022-12-18T05:02:01;53.97;;;27.70;;
24223;SDS011;12359;49.716;9.212;2022-12-18T05:04:26;53.47;;;29.00;;
24223;SDS011;12359;49.716;9.212;2022-12-18T05:06:52;46.55;;;23.95;;
24223;SDS011;12359;49.716;9.212;2022-12-18T05:09:18;48.83;;;27.65;;
24223;SDS011;12359;49.716;9.212;2022-12-18T05:11:43;48.75;;;27.80;;
24223;SDS011;12359;49.716;9.212;2022-12-18T05:14:09;46.92;;;25.70;;
24223;SDS011;12359;49.716;9.212;2022-12-18T05:16:35;50.05;;;27.70;;
24223;SDS011;12359;49.716;9.212;2022-12-18T05:19:00;51.47;;;29.73;;
24223;SDS011;12359;49.716;9.212;2022-12-18T05:21:26;48.28;;;28.77;;
24223;SDS011;12359;49.716;9.212;2022-12-18T05:23:52;53.97;;;31.20;;
24223;SDS011;12359;49.716;9.212;2022-12-18T05:26:17;53.88;;;29.45;;
24223;SDS011;12359;49.716;9.212;2022-12-18T05:28:43;48.85;;;26.77;;
24223;SDS011;12359;49.716;9.212;2022-12-18T05:31:09;54.28;;;30.67;;
24223;SDS011;12359;49.716;9.212;2022-12-18T05:33:35;57.13;;;32.53;;
24223;SDS011;12359;49.716;9.212;2022-12-18T05:36:01;54.67;;;29.83;;
24223;SDS011;12359;49.716;9.212;2022-12-18T05:38:29;49.67;;;28.92;;
24223;SDS011;12359;49.716;9.212;2022-12-18T05:40:56;49.60;;;29.50;;
24223;SDS011;12359;49.716;9.212;2022-12-18T05:43:23;64.93;;;32.97;;
24223;SDS011;12359;49.716;9.212;2022-12-18T05:45:49;49.40;;;27.05;;
24223;SDS011;12359;49.716;9.212;2022-12-18T05:48:16;50.03;;;29.27;;
24223;SDS011;12359;49.716;9.212;2022-12-18T05:50:43;58.97;;;30.92;;
24223;SDS011;12359;49.716;9.212;2022-12-18T05:53:14;49.28;;;30.75;;
24223;SDS011;12359;49.716;9.212;2022-12-18T05:55:42;54.88;;;30.80;;
24223;SDS011;12359;49.716;9.212;2022-12-18T05:58:09;55.15;;;30.75;;
24223;SDS011;12359;49.716;9.212;2022-12-18T06:00:36;49.00;;;28.95;;
24223;SDS011;12359;49.716;9.212;2022-12-18T06:03:07;46.83;;;24.33;;
24223;SDS011;12359;49.716;9.212;2022-12-18T06:05:34;46.13;;;26.52;;
24223;SDS011;12359;49.716;9.212;2022-12-18T06:08:05;51.13;;;27.60;;
24223;SDS011;12359;49.716;9.212;2022-12-18T06:10:31;54.63;;;30.38;;
24223;SDS011;12359;49.716;9.212;2022-12-18T06:12:57;50.05;;;25.17;;
24223;SDS011;12359;49.716;9.212;2022-12-18T06:15:23;56.40;;;31.40;;
24223;SDS011;12359;49.716;9.212;2022-12-18T06:17:49;48.33;;;27.75;;
24223;SDS011;12359;49.716;9.212;2022-12-18T06:20:15;54.92;;;30.52;;
24223;SDS011;12359;49.716;9.212;2022-12-18T06:22:41;54.33;;;30.45;;
24223;SDS011;12359;49.716;9.212;2022-12-18T06:25:07;59.88;;;33.67;;
24223;SDS011;12359;49.716;9.212;2022-12-18T06:27:33;56.08;;;32.00;;
24223;SDS011;12359;49.716;9.212;2022-12-18T06:29:59;60.55;;;30.13;;
24223;SDS011;12359;49.716;9.212;2022-12-18T06:32:25;57.55;;;34.00;;
24223;SDS011;12359;49.716;9.212;2022-12-18T06:34:51;56.20;;;33.05;;
24223;SDS011;12359;49.716;9.212;2022-12-18T06:37:18;66.82;;;34.75;;
24223;SDS011;12359;49.716;9.212;2022-12-18T06:39:44;60.40;;;32.55;;
24223;SDS011;12359;49.716;9.212;2022-12-18T06:42:09;59.58;;;32.72;;
24223;SDS011;12359;49.716;9.212;2022-12-18T06:44:35;54.05;;;32.33;;
24223;SDS011;12359;49.716;9.212;2022-12-18T06:47:01;54.20;;;28.67;;
24223;SDS011;12359;49.716;9.212;2022-12-18T06:49:26;60.97;;;29.45;;
24223;SDS011;12359;49.716;9.212;2022-12-18T06:51:52;48.53;;;29.90;;
24223;SDS011;12359;49.716;9.212;2022-12-18T06:54:18;55.95;;;33.00;;
24223;SDS011;12359;49.716;9.212;2022-12-18T06:56:44;49.30;;;31.00;;
24223;SDS011;12359;49.716;9.212;2022-12-18T06:59:11;57.00;;;32.35;;
24223;SDS011;12359;49.716;9.212;2022-12-18T07:01:38;52.03;;;29.52;;
24223;SDS011;12359;49.716;9.212;2022-12-18T07:04:04;49.53;;;27.50;;
24223;SDS011;12359;49.716;9.212;2022-12-18T07:06:30;62.55;;;33.63;;
24223;SDS011;12359;49.716;9.212;2022-12-18T07:08:56;56.88;;;33.33;;
24223;SDS011;12359;49.716;9.212;2022-12-18T07:11:21;54.70;;;32.00;;
24223;SDS011;12359;49.716;9.212;2022-12-18T07:13:47;56.55;;;30.83;;
24223;SDS011;12359;49.716;9.212;2022-12-18T07:16:17;53.05;;;30.73;;
24223;SDS011;12359;49.716;9.212;2022-12-18T07:18:44;59.53;;;30.25;;
24223;SDS011;12359;49.716;9.212;2022-12-18T07:21:11;49.13;;;28.60;;
24223;SDS011;12359;49.716;9.212;2022-12-18T07:23:39;59.15;;;29.95;;
24223;SDS011;12359;49.716;9.212;2022-12-18T07:26:08;53.97;;;29.10;;
24223;SDS011;12359;49.716;9.212;2022-12-18T07:28:36;59.42;;;34.15;;
24223;SDS011;12359;49.716;9.212;2022-12-18T07:31:04;69.95;;;36.70;;
24223;SDS011;12359;49.716;9.212;2022-12-18T07:33:35;66.80;;;36.25;;
24223;SDS011;12359;49.716;9.212;2022-12-18T07:36:01;69.35;;;38.25;;
24223;SDS011;12359;49.716;9.212;2022-12-18T07:38:28;67.45;;;34.97;;
24223;SDS011;12359;49.716;9.212;2022-12-18T07:40:59;67.28;;;36.65;;
24223;SDS011;12359;49.716;9.212;2022-12-18T07:43:29;56.28;;;33.80;;
24223;SDS011;12359;49.716;9.212;2022-12-18T07:45:55;69.45;;;35.88;;
24223;SDS011;12359;49.716;9.212;2022-12-18T07:48:21;66.25;;;36.22;;
24223;SDS011;12359;49.716;9.212;2022-12-18T07:50:47;77.40;;;37.63;;
24223;SDS011;12359;49.716;9.212;2022-12-18T07:53:13;66.15;;;34.85;;
24223;SDS011;12359;49.716;9.212;2022-12-18T07:55:39;65.65;;;34.50;;
24223;SDS011;12359;49.716;9.212;2022-12-18T07:58:06;70.35;;;37.15;;
24223;SDS011;12359;49.716;9.212;2022-12-18T08:00:32;78.32;;;34.67;;
24223;SDS011;12359;49.716;9.212;2022-12-18T08:02:58;77.68;;;37.08;;
24223;SDS011;12359;49.716;9.212;2022-12-18T08:05:23;69.25;;;36.25;;
24223;SDS011;12359;49.716;9.212;2022-12-18T08:07:49;65.78;;;36.90;;
24223;SDS011;12359;49.716;9.212;2022-12-18T08:10:15;78.95;;;37.92;;
24223;SDS011;12359;49.716;9.212;2022-12-18T08:12:41;75.57;;;37.78;;
24223;SDS011;12359;49.716;9.212;2022-12-18T08:15:07;76.78;;;37.15;;
24223;SDS011;12359;49.716;9.212;2022-12-18T08:17:33;84.65;;;40.53;;
24223;SDS011;12359;49.716;9.212;2022-12-18T08:19:58;81.45;;;38.17;;
24223;SDS011;12359;49.716;9.212;2022-12-18T08:22:24;80.93;;;38.33;;
24223;SDS011;12359;49.716;9.212;2022-12-18T08:24:50;80.15;;;37.75;;
24223;SDS011;12359;49.716;9.212;2022-12-18T08:27:16;81.85;;;38.03;;
24223;SDS011;12359;49.716;9.212;2022-12-18T08:29:41;79.05;;;37.60;;
24223;SDS011;12359;49.716;9.212;2022-12-18T08:32:07;68.80;;;36.05;;
24223;SDS011;12359;49.716;9.212;2022-12-18T08:34:33;68.30;;;35.22;;
24223;SDS011;12359;49.716;9.212;2022-12-18T08:36:59;81.00;;;38.40;;
24223;SDS011;12359;49.716;9.212;2022-12-18T08:39:24;79.85;;;35.53;;
24223;SDS011;12359;49.716;9.212;2022-12-18T08:41:50;80.15;;;36.65;;
24223;SDS011;12359;49.716;9.212;2022-12-18T08:44:34;73.47;;;36.97;;
24223;SDS011;12359;49.716;9.212;2022-12-18T08:47:03;77.90;;;35.08;;
24223;SDS011;12359;49.716;9.212;2022-12-18T08:49:30;79.80;;;38.92;;
24223;SDS011;12359;49.716;9.212;2022-12-18T08:51:55;85.82;;;40.53;;
24223;SDS011;12359;49.716;9.212;2022-12-18T08:54:24;70.13;;;34.53;;
24223;SDS011;12359;49.716;9.212;2022-12-18T08:56:51;77.13;;;39.60;;
24223;SDS011;12359;49.716;9.212;2022-12-18T08:59:17;66.55;;;35.72;;
24223;SDS011;12359;49.716;9.212;2022-12-18T09:01:43;70.35;;;35.97;;
24223;SDS011;12359;49.716;9.212;2022-12-18T09:04:10;69.55;;;33.40;;
24223;SDS011;12359;49.716;9.212;2022-12-18T09:06:35;70.35;;;35.83;;
24223;SDS011;12359;49.716;9.212;2022-12-18T09:09:02;67.15;;;34.78;;
24223;SDS011;12359;49.716;9.212;2022-12-18T09:11:29;61.38;;;33.58;;
24223;SDS011;12359;49.716;9.212;2022-12-18T09:13:57;69.18;;;34.92;;
24223;SDS011;12359;49.716;9.212;2022-12-18T09:16:23;74.07;;;37.72;;
24223;SDS011;12359;49.716;9.212;2022-12-18T09:18:50;71.43;;;35.28;;
24223;SDS011;12359;49.716;9.212;2022-12-18T09:21:17;63.38;;;33.30;;
24223;SDS011;12359;49.716;9.212;2022-12-18T09:23:48;70.35;;;35.17;;
24223;SDS011;12359;49.716;9.212;2022-12-18T09:26:18;74.30;;;34.07;;
24223;SDS011;12359;49.716;9.212;2022-12-18T09:28:44;74.28;;;37.55;;
24223;SDS011;12359;49.716;9.212;2022-12-18T09:31:10;71.93;;;32.70;;
24223;SDS011;12359;49.716;9.212;2022-12-18T09:33:37;71.28;;;36.13;;
24223;SDS011;12359;49.716;9.212;2022-12-18T09:36:04;72.60;;;34.40;;
24223;SDS011;12359;49.716;9.212;2022-12-18T09:38:32;66.63;;;34.20;;
24223;SDS011;12359;49.716;9.212;2022-12-18T09:41:00;67.85;;;35.33;;
24223;SDS011;12359;49.716;9.212;2022-12-18T09:44:05;67.03;;;36.47;;
24223;SDS011;12359;49.716;9.212;2022-12-18T09:46:36;84.70;;;38.67;;
24223;SDS011;12359;49.716;9.212;2022-12-18T09:49:09;68.40;;;32.22;;
24223;SDS011;12359;49.716;9.212;2022-12-18T09:51:41;78.45;;;38.67;;
24223;SDS011;12359;49.716;9.212;2022-12-18T09:57:04;69.43;;;35.03;;
24223;SDS011;12359;49.716;9.212;2022-12-18T10:02:37;66.18;;;34.60;;
24223;SDS011;12359;49.716;9.212;2022-12-18T10:10:06;65.22;;;33.00;;
24223;SDS011;12359;49.716;9.212;2022-12-18T10:15:26;60.60;;;30.95;;
24223;SDS011;12359;49.716;9.212;2022-12-18T10:18:00;74.15;;;32.35;;
24223;SDS011;12359;49.716;9.212;2022-12-18T10:20:52;72.93;;;34.38;;
24223;SDS011;12359;49.716;9.212;2022-12-18T10:28:30;70.10;;;33.45;;
24223;SDS011;12359;49.716;9.212;2022-12-18T10:30:58;72.72;;;34.00;;
24223;SDS011;12359;49.716;9.212;2022-12-18T10:33:27;68.85;;;30.63;;
24223;SDS011;12359;49.716;9.212;2022-12-18T10:35:54;69.00;;;31.48;;
24223;SDS011;12359;49.716;9.212;2022-12-18T10:38:21;67.30;;;32.33;;
24223;SDS011;12359;49.716;9.212;2022-12-18T10:44:37;72.30;;;32.65;;
24223;SDS011;12359;49.716;9.212;2022-12-18T10:46:44;66.75;;;31.88;;
24223;SDS011;12359;49.716;9.212;2022-12-18T10:49:18;62.95;;;31.60;;
24223;SDS011;12359;49.716;9.212;2022-12-18T10:51:47;57.85;;;30.98;;
24223;SDS011;12359;49.716;9.212;2022-12-18T10:56:42;60.13;;;28.92;;
24223;SDS011;12359;49.716;9.212;2022-12-18T10:59:09;64.82;;;31.80;;
24223;SDS011;12359;49.716;9.212;2022-12-18T11:04:13;69.32;;;31.25;;
24223;SDS011;12359;49.716;9.212;2022-12-18T11:06:52;58.78;;;29.35;;
24223;SDS011;12359;49.716;9.212;2022-12-18T11:09:30;59.13;;;30.65;;
24223;SDS011;12359;49.716;9.212;2022-12-18T11:12:03;67.13;;;32.75;;
24223;SDS011;12359;49.716;9.212;2022-12-18T11:14:43;60.47;;;30.45;;
24223;SDS011;12359;49.716;9.212;2022-12-18T11:17:18;56.22;;;28.98;;
24223;SDS011;12359;49.716;9.212;2022-12-18T11:19:45;60.45;;;29.42;;
24223;SDS011;12359;49.716;9.212;2022-12-18T11:22:23;50.83;;;27.67;;
24223;SDS011;12359;49.716;9.212;2022-12-18T11:27:19;60.15;;;30.50;;
24223;SDS011;12359;49.716;9.212;2022-12-18T11:29:46;62.28;;;28.42;;
24223;SDS011;12359;49.716;9.212;2022-12-18T11:35:10;55.22;;;28.45;;
24223;SDS011;12359;49.716;9.212;2022-12-18T11:37:59;67.20;;;30.08;;
24223;SDS011;12359;49.716;9.212;2022-12-18T11:40:41;60.47;;;28.13;;
24223;SDS011;12359;49.716;9.212;2022-12-18T11:43:10;56.20;;;26.85;;
24223;SDS011;12359;49.716;9.212;2022-12-18T11:45:52;55.05;;;28.45;;
24223;SDS011;12359;49.716;9.212;2022-12-18T11:48:32;57.80;;;29.30;;
24223;SDS011;12359;49.716;9.212;2022-12-18T11:51:03;57.17;;;29.48;;
24223;SDS011;12359;49.716;9.212;2022-12-18T11:53:34;53.83;;;26.73;;
24223;SDS011;12359;49.716;9.212;2022-12-18T11:56:21;46.70;;;24.83;;
24223;SDS011;12359;49.716;9.212;2022-12-18T12:18:13;57.38;;;28.60;;
24223;SDS011;12359;49.716;9.212;2022-12-18T12:21:17;56.63;;;28.98;;
24223;SDS011;12359;49.716;9.212;2022-12-18T12:32:05;51.93;;;26.27;;
24223;SDS011;12359;49.716;9.212;2022-12-18T12:37:19;50.33;;;25.63;;
24223;SDS011;12359;49.716;9.212;2022-12-18T12:39:53;55.45;;;26.40;;
24223;SDS011;12359;49.716;9.212;2022-12-18T12:42:23;52.58;;;27.52;;
24223;SDS011;12359;49.716;9.212;2022-12-18T12:45:16;52.75;;;24.63;;
24223;SDS011;12359;49.716;9.212;2022-12-18T12:47:46;50.83;;;24.67;;
24223;SDS011;12359;49.716;9.212;2022-12-18T12:50:16;53.53;;;26.10;;
24223;SDS011;12359;49.716;9.212;2022-12-18T12:52:45;53.22;;;24.00;;
24223;SDS011;12359;49.716;9.212;2022-12-18T12:55:19;48.25;;;26.60;;
24223;SDS011;12359;49.716;9.212;2022-12-18T13:00:27;51.47;;;27.00;;
24223;SDS011;12359;49.716;9.212;2022-12-18T13:03:15;50.58;;;23.75;;
24223;SDS011;12359;49.716;9.212;2022-12-18T13:06:16;46.85;;;26.33;;
24223;SDS011;12359;49.716;9.212;2022-12-18T13:09:05;55.08;;;26.08;;
24223;SDS011;12359;49.716;9.212;2022-12-18T13:11:40;49.53;;;25.42;;
24223;SDS011;12359;49.716;9.212;2022-12-18T13:14:36;48.05;;;24.67;;
24223;SDS011;12359;49.716;9.212;2022-12-18T13:20:09;56.47;;;28.13;;
24223;SDS011;12359;49.716;9.212;2022-12-18T13:22:42;49.90;;;23.13;;
24223;SDS011;12359;49.716;9.212;2022-12-18T13:38:21;55.42;;;26.80;;
24223;SDS011;12359;49.716;9.212;2022-12-18T13:41:00;54.92;;;27.48;;
24223;SDS011;12359;49.716;9.212;2022-12-18T13:51:32;61.67;;;32.47;;
24223;SDS011;12359;49.716;9.212;2022-12-18T13:54:41;51.80;;;26.10;;
24223;SDS011;12359;49.716;9.212;2022-12-18T13:57:05;49.95;;;25.30;;
24223;SDS011;12359;49.716;9.212;2022-12-18T13:59:55;46.95;;;24.45;;
24223;SDS011;12359;49.716;9.212;2022-12-18T14:02:22;43.03;;;23.88;;
24223;SDS011;12359;49.716;9.212;2022-12-18T14:04:50;44.85;;;25.27;;
24223;SDS011;12359;49.716;9.212;2022-12-18T14:07:25;49.88;;;27.70;;
24223;SDS011;12359;49.716;9.212;2022-12-18T14:09:54;45.28;;;23.13;;
24223;SDS011;12359;49.716;9.212;2022-12-18T14:12:24;52.03;;;27.30;;
24223;SDS011;12359;49.716;9.212;2022-12-18T14:17:58;46.25;;;24.42;;
24223;SDS011;12359;49.716;9.212;2022-12-18T14:20:48;50.63;;;26.63;;
24223;SDS011;12359;49.716;9.212;2022-12-18T14:26:03;48.75;;;25.20;;
24223;SDS011;12359;49.716;9.212;2022-12-18T14:28:47;46.08;;;23.08;;
24223;SDS011;12359;49.716;9.212;2022-12-18T14:31:17;49.08;;;25.55;;
24223;SDS011;12359;49.716;9.212;2022-12-18T14:33:44;43.10;;;24.55;;
24223;SDS011;12359;49.716;9.212;2022-12-18T14:36:15;44.03;;;23.85;;
24223;SDS011;12359;49.716;9.212;2022-12-18T14:38:42;44.15;;;24.35;;
24223;SDS011;12359;49.716;9.212;2022-12-18T14:41:13;40.30;;;23.05;;
24223;SDS011;12359;49.716;9.212;2022-12-18T14:43:41;43.10;;;23.67;;
24223;SDS011;12359;49.716;9.212;2022-12-18T14:49:02;46.63;;;23.60;;
24223;SDS011;12359;49.716;9.212;2022-12-18T14:51:30;51.88;;;27.67;;
24223;SDS011;12359;49.716;9.212;2022-12-18T14:53:59;45.90;;;26.27;;
24223;SDS011;12359;49.716;9.212;2022-12-18T14:56:33;44.28;;;24.50;;
24223;SDS011;12359;49.716;9.212;2022-12-18T14:59:02;45.03;;;22.77;;
24223;SDS011;12359;49.716;9.212;2022-12-18T15:01:33;48.53;;;25.98;;
24223;SDS011;12359;49.716;9.212;2022-12-18T15:04:02;47.42;;;25.10;;
24223;SDS011;12359;49.716;9.212;2022-12-18T15:08:58;46.95;;;24.30;;
24223;SDS011;12359;49.716;9.212;2022-12-18T15:11:27;47.72;;;23.90;;
24223;SDS011;12359;49.716;9.212;2022-12-18T15:16:55;40.90;;;24.05;;
24223;SDS011;12359;49.716;9.212;2022-12-18T15:19:22;45.47;;;23.60;;
24223;SDS011;12359;49.716;9.212;2022-12-18T15:22:03;52.35;;;27.77;;
24223;SDS011;12359;49.716;9.212;2022-12-18T15:24:30;49.80;;;26.00;;
24223;SDS011;12359;49.716;9.212;2022-12-18T15:26:57;51.72;;;27.42;;
24223;SDS011;12359;49.716;9.212;2022-12-18T15:29:24;54.67;;;27.52;;
24223;SDS011;12359;49.716;9.212;2022-12-18T15:34:30;47.88;;;26.73;;
24223;SDS011;12359;49.716;9.212;2022-12-18T15:36:56;37.97;;;23.20;;
24223;SDS011;12359;49.716;9.212;2022-12-18T15:39:22;54.03;;;26.67;;
24223;SDS011;12359;49.716;9.212;2022-12-18T15:41:48;52.13;;;24.65;;
24223;SDS011;12359;49.716;9.212;2022-12-18T15:44:33;49.50;;;25.95;;
24223;SDS011;12359;49.716;9.212;2022-12-18T15:46:59;45.70;;;24.35;;
24223;SDS011;12359;49.716;9.212;2022-12-18T15:49:24;55.33;;;28.30;;
24223;SDS011;12359;49.716;9.212;2022-12-18T15:51:53;51.35;;;26.33;;
24223;SDS011;12359;49.716;9.212;2022-12-18T15:54:22;43.95;;;24.92;;
24223;SDS011;12359;49.716;9.212;2022-12-18T15:57:09;53.28;;;24.35;;
24223;SDS011;12359;49.716;9.212;2022-12-18T15:59:54;46.28;;;25.17;;
24223;SDS011;12359;49.716;9.212;2022-12-18T16:02:23;50.22;;;26.50;;
24223;SDS011;12359;49.716;9.212;2022-12-18T16:04:50;42.97;;;23.30;;
24223;SDS011;12359;49.716;9.212;2022-12-18T16:07:17;54.03;;;28.50;;
24223;SDS011;12359;49.716;9.212;2022-12-18T16:09:43;47.58;;;24.85;;
24223;SDS011;12359;49.716;9.212;2022-12-18T16:12:18;53.45;;;25.70;;
24223;SDS011;12359;49.716;9.212;2022-12-18T16:14:48;54.63;;;27.17;;
24223;SDS011;12359;49.716;9.212;2022-12-18T16:17:14;45.38;;;24.60;;
24223;SDS011;12359;49.716;9.212;2022-12-18T16:19:40;50.45;;;26.17;;
24223;SDS011;12359;49.716;9.212;2022-12-18T16:22:08;51.78;;;25.67;;
24223;SDS011;12359;49.716;9.212;2022-12-18T16:24:42;46.85;;;26.70;;
24223;SDS011;12359;49.716;9.212;2022-12-18T16:27:08;50.47;;;27.20;;
24223;SDS011;12359;49.716;9.212;2022-12-18T16:29:34;47.97;;;24.90;;
24223;SDS011;12359;49.716;9.212;2022-12-18T16:32:00;49.47;;;26.67;;
24223;SDS011;12359;49.716;9.212;2022-12-18T16:34:26;43.90;;;26.30;;
24223;SDS011;12359;49.716;9.212;2022-12-18T16:36:54;47.85;;;25.50;;
24223;SDS011;12359;49.716;9.212;2022-12-18T16:39:24;47.97;;;23.95;;
24223;SDS011;12359;49.716;9.212;2022-12-18T16:41:51;50.63;;;26.75;;
24223;SDS011;12359;49.716;9.212;2022-12-18T16:44:16;39.72;;;21.40;;
24223;SDS011;12359;49.716;9.212;2022-12-18T16:46:43;44.65;;;23.63;;
24223;SDS011;12359;49.716;9.212;2022-12-18T16:49:12;44.63;;;24.15;;
24223;SDS011;12359;49.716;9.212;2022-12-18T16:51:39;48.95;;;25.05;;
24223;SDS011;12359;49.716;9.212;2022-12-18T16:54:04;47.22;;;24.38;;